createdAt,value
2023-04-22T00:01:37.233Z,4.03
2023-04-22T00:04:39.189Z,3.67
2023-04-22T00:07:41.298Z,4.25
2023-04-22T00:10:43.093Z,3.70
2023-04-22T00:13:46.224Z,4.28
2023-04-22T00:16:47.954Z,4.10
2023-04-22T00:19:49.691Z,4.07
2023-04-22T00:22:51.428Z,3.75
2023-04-22T00:25:53.173Z,4.18
2023-04-22T00:28:57.147Z,3.80
2023-04-22T00:31:58.933Z,3.88
2023-04-22T00:35:00.787Z,4.30
2023-04-22T00:38:02.562Z,3.67
2023-04-22T00:41:05.062Z,4.03
2023-04-22T00:44:09.834Z,3.80
2023-04-22T00:47:12.348Z,4.00
2023-04-22T00:50:14.627Z,4.40
2023-04-22T00:53:16.413Z,3.97
2023-04-22T00:56:19.569Z,3.90
2023-04-22T00:59:24.118Z,3.60
2023-04-22T01:02:26.307Z,3.55
2023-04-22T01:05:30.799Z,3.80
2023-04-22T01:08:33.607Z,4.03
2023-04-22T01:11:35.835Z,3.60
2023-04-22T01:14:39.429Z,3.90
2023-04-22T01:17:41.404Z,4.20
2023-04-22T01:20:43.250Z,3.97
2023-04-22T01:23:46.541Z,4.25
2023-04-22T01:26:48.708Z,4.00
2023-04-22T01:29:50.588Z,3.78
2023-04-22T01:32:53.025Z,3.95
2023-04-22T01:35:55.036Z,3.63
2023-04-22T01:38:58.628Z,3.92
2023-04-22T01:42:00.534Z,3.72
2023-04-22T01:45:02.278Z,3.80
2023-04-22T01:48:04.758Z,4.03
2023-04-22T01:51:06.682Z,3.92
2023-04-22T01:54:10.204Z,3.80
2023-04-22T01:57:12.803Z,3.42
2023-04-22T02:00:14.964Z,3.80
2023-04-22T02:03:16.677Z,3.65
2023-04-22T02:06:18.557Z,3.35
2023-04-22T02:09:21.699Z,3.60
2023-04-22T02:12:23.456Z,3.72
2023-04-22T02:15:25.365Z,3.75
2023-04-22T02:18:27.040Z,3.97
2023-04-22T02:21:29.184Z,3.85
2023-04-22T02:24:32.349Z,4.13
2023-04-22T02:27:34.206Z,3.80
2023-04-22T02:30:36.072Z,4.00
2023-04-22T02:33:37.786Z,4.05
2023-04-22T02:36:39.608Z,3.92
2023-04-22T02:39:43.002Z,3.60
2023-04-22T02:42:44.854Z,4.03
2023-04-22T02:45:46.533Z,4.05
2023-04-22T02:48:48.288Z,3.90
2023-04-22T02:51:50.051Z,3.83
2023-04-22T02:54:53.138Z,3.70
2023-04-22T02:57:54.873Z,3.92
2023-04-22T03:00:56.722Z,3.85
2023-04-22T03:03:58.866Z,3.80
2023-04-22T03:07:00.728Z,4.10
2023-04-22T03:10:04.550Z,3.95
2023-04-22T03:13:06.244Z,3.83
2023-04-22T03:16:08.113Z,3.97
2023-04-22T03:19:09.987Z,4.00
2023-04-22T03:22:11.691Z,3.70
2023-04-22T03:25:15.021Z,3.97
2023-04-22T03:28:16.871Z,3.80
2023-04-22T03:31:18.650Z,3.42
2023-04-22T03:34:20.359Z,3.80
2023-04-22T03:37:22.128Z,3.33
2023-04-22T03:40:25.278Z,3.42
2023-04-22T03:43:27.085Z,3.88
2023-04-22T03:46:28.867Z,3.88
2023-04-22T03:49:30.724Z,3.88
2023-04-22T03:52:32.419Z,3.85
2023-04-22T03:55:35.593Z,4.10
2023-04-22T03:58:37.341Z,4.50
2023-04-22T04:01:39.168Z,4.18
2023-04-22T04:04:41.133Z,4.07
2023-04-22T04:07:43.090Z,3.72
2023-04-22T04:10:46.262Z,4.40
2023-04-22T04:13:48.022Z,4.25
2023-04-22T04:16:49.788Z,4.72
2023-04-22T04:19:51.820Z,4.22
2023-04-22T04:22:53.570Z,4.85
2023-04-22T04:25:56.736Z,4.75
2023-04-22T04:28:58.516Z,4.00
2023-04-22T04:32:00.253Z,5.00
2023-04-22T04:35:02.040Z,4.75
2023-04-22T04:38:03.882Z,4.55
2023-04-22T04:41:07.015Z,4.50
2023-04-22T04:44:08.768Z,4.35
2023-04-22T04:47:10.510Z,4.20
2023-04-22T04:50:12.338Z,4.20
2023-04-22T04:53:14.128Z,4.75
2023-04-22T04:56:17.296Z,4.75
2023-04-22T04:59:19.077Z,4.93
2023-04-22T05:02:21.146Z,4.72
2023-04-22T05:05:23.278Z,4.55
2023-04-22T05:08:25.087Z,4.80
2023-04-22T05:11:28.200Z,4.93
2023-04-22T05:14:30.543Z,4.20
2023-04-22T05:17:32.321Z,4.40
2023-04-22T05:20:36.174Z,4.32
2023-04-22T05:23:38.126Z,5.28
2023-04-22T05:26:41.626Z,4.57
2023-04-22T05:29:43.515Z,5.38
2023-04-22T05:32:45.358Z,5.40
2023-04-22T05:35:47.173Z,5.05
2023-04-22T05:38:48.964Z,4.63
2023-04-22T05:41:52.052Z,4.15
2023-04-22T05:44:53.805Z,4.55
2023-04-22T05:47:55.588Z,4.68
2023-04-22T05:50:57.400Z,4.57
2023-04-22T05:53:59.258Z,4.60
2023-04-22T05:57:02.470Z,4.53
2023-04-22T06:00:05.186Z,5.10
2023-04-22T06:03:07.060Z,5.20
2023-04-22T06:06:08.974Z,4.82
2023-04-22T06:09:10.767Z,5.38
2023-04-22T06:12:13.862Z,5.07
2023-04-22T06:15:15.816Z,6.00
2023-04-22T06:18:17.478Z,6.07
2023-04-22T06:21:19.212Z,6.32
2023-04-22T06:24:21.233Z,5.32
2023-04-22T06:27:24.385Z,5.68
2023-04-22T06:30:26.431Z,5.35
2023-04-22T06:33:28.174Z,6.32
2023-04-22T06:36:30.776Z,5.43
2023-04-22T06:39:32.637Z,5.85
2023-04-22T06:42:35.757Z,5.47
2023-04-22T06:45:37.751Z,5.20
2023-04-22T06:48:39.546Z,5.28
2023-04-22T06:51:41.747Z,5.38
2023-04-22T06:54:43.612Z,5.50
2023-04-22T06:57:46.976Z,6.00
2023-04-22T07:00:48.713Z,5.15
2023-04-22T07:03:50.470Z,5.30
2023-04-22T07:06:52.275Z,4.93
2023-04-22T07:09:54.088Z,5.40
2023-04-22T07:12:57.135Z,5.05
2023-04-22T07:15:59.426Z,5.18
2023-04-22T07:19:01.388Z,5.43
2023-04-22T07:22:03.167Z,4.57
2023-04-22T07:25:05.616Z,5.82
2023-04-22T07:28:08.763Z,5.10
2023-04-22T07:31:10.617Z,5.28
2023-04-22T07:34:12.445Z,5.00
2023-04-22T07:37:14.279Z,4.72
2023-04-22T07:40:15.977Z,4.70
2023-04-22T07:43:19.159Z,4.70
2023-04-22T07:46:21.057Z,5.18
2023-04-22T07:49:22.935Z,4.80
2023-04-22T07:52:24.752Z,4.70
2023-04-22T07:55:26.724Z,4.55
2023-04-22T07:58:29.877Z,4.90
2023-04-22T08:01:31.645Z,4.32
2023-04-22T08:04:33.665Z,4.50
2023-04-22T08:07:35.604Z,4.38
2023-04-22T08:10:37.474Z,3.58
2023-04-22T08:13:40.578Z,3.63
2023-04-22T08:16:42.361Z,3.67
2023-04-22T08:19:45.542Z,3.95
2023-04-22T08:22:47.387Z,3.63
2023-04-22T08:25:49.440Z,3.72
2023-04-22T08:28:52.518Z,3.97
2023-04-22T08:31:54.226Z,4.25
2023-04-22T08:35:03.873Z,3.55
2023-04-22T08:38:06.426Z,4.40
2023-04-22T08:41:08.596Z,4.30
2023-04-22T08:44:12.006Z,3.70
2023-04-22T08:47:14.933Z,4.22
2023-04-22T08:50:16.654Z,4.20
2023-04-22T08:53:18.492Z,3.97
2023-04-22T08:56:21.161Z,6.22
2023-04-22T08:59:24.422Z,5.15
2023-04-22T09:02:28.914Z,4.65
2023-04-22T09:05:33.338Z,4.78
2023-04-22T09:08:35.804Z,4.63
2023-04-22T09:11:38.206Z,4.15
2023-04-22T09:14:43.050Z,3.97
2023-04-22T09:17:44.908Z,5.35
2023-04-22T09:20:47.972Z,3.33
2023-04-22T09:23:51.844Z,3.22
2023-04-22T09:26:55.700Z,3.58
2023-04-22T09:29:58.815Z,3.53
2023-04-22T09:33:02.214Z,3.30
2023-04-22T09:36:09.013Z,3.10
2023-04-22T09:39:10.912Z,3.40
2023-04-22T09:42:12.751Z,2.75
2023-04-22T09:45:25.396Z,3.15
2023-04-22T09:48:27.209Z,3.20
2023-04-22T09:51:30.400Z,3.33
2023-04-22T09:54:32.238Z,2.67
2023-04-22T09:57:33.950Z,3.00
2023-04-22T10:00:40.005Z,2.75
2023-04-22T10:03:41.842Z,3.13
2023-04-22T10:06:43.897Z,3.03
2023-04-22T10:09:45.953Z,2.88
2023-04-22T10:12:48.034Z,2.65
2023-04-22T10:15:53.599Z,3.00
2023-04-22T10:18:57.284Z,2.65
2023-04-22T10:22:02.420Z,2.70
2023-04-22T10:25:04.869Z,2.80
2023-04-22T10:28:08.801Z,2.78
2023-04-22T10:31:21.894Z,2.67
2023-04-22T10:34:24.061Z,2.80
2023-04-22T10:37:25.798Z,3.10
2023-04-22T10:40:27.550Z,2.92
2023-04-22T10:43:41.236Z,2.45
2023-04-22T10:47:00.472Z,2.50
2023-04-22T10:50:10.138Z,2.15
2023-04-22T10:53:36.011Z,2.70
2023-04-22T10:57:00.624Z,2.10
2023-04-22T11:00:20.434Z,2.17
2023-04-22T11:03:28.734Z,2.33
2023-04-22T11:06:30.925Z,1.90
2023-04-22T11:09:32.704Z,2.10
2023-04-22T11:12:44.652Z,1.98
2023-04-22T11:15:48.160Z,1.80
2023-04-22T11:18:52.209Z,1.95
2023-04-22T11:21:54.545Z,2.63
2023-04-22T11:24:56.683Z,1.80
2023-04-22T11:27:58.730Z,2.20
2023-04-22T11:31:05.476Z,2.25
2023-04-22T11:34:10.429Z,1.73
2023-04-22T11:37:12.252Z,2.05
2023-04-22T11:40:30.274Z,2.53
2023-04-22T11:43:33.597Z,2.00
2023-04-22T11:46:35.436Z,1.90
2023-04-22T11:49:39.100Z,1.95
2023-04-22T11:52:46.953Z,1.90
2023-04-22T11:55:51.577Z,2.28
2023-04-22T11:58:53.335Z,1.60
2023-04-22T12:01:55.116Z,1.65
2023-04-22T12:04:58.942Z,1.90
2023-04-22T12:08:01.349Z,1.75
2023-04-22T12:11:06.058Z,2.28
2023-04-22T12:14:07.922Z,2.10
2023-04-22T12:17:09.931Z,1.88
2023-04-22T12:20:13.266Z,1.85
2023-04-22T12:23:16.046Z,2.00
2023-04-22T12:26:19.727Z,1.95
2023-04-22T12:29:27.417Z,2.10
2023-04-22T12:32:29.138Z,1.80
2023-04-22T12:35:32.671Z,1.85
2023-04-22T12:38:34.902Z,1.52
2023-04-22T12:41:36.693Z,1.70
2023-04-22T12:44:38.604Z,1.80
2023-04-22T12:47:40.405Z,1.52
2023-04-22T12:50:43.844Z,1.35
2023-04-22T12:53:46.022Z,0.93
2023-04-22T12:56:48.483Z,1.00
2023-04-22T12:59:50.234Z,1.20
2023-04-22T13:02:52.102Z,1.55
2023-04-22T13:05:55.319Z,1.40
2023-04-22T13:08:57.123Z,1.42
2023-04-22T13:11:58.916Z,1.20
2023-04-22T13:15:00.653Z,1.08
2023-04-22T13:18:02.534Z,1.38
2023-04-22T13:21:05.924Z,1.70
2023-04-22T13:24:08.124Z,1.60
2023-04-22T13:27:09.909Z,1.58
2023-04-22T13:30:12.669Z,1.73
2023-04-22T13:33:14.362Z,1.48
2023-04-22T13:36:17.437Z,1.38
2023-04-22T13:39:19.256Z,1.40
2023-04-22T13:42:21.194Z,1.38
2023-04-22T13:45:23.050Z,1.42
2023-04-22T13:48:24.816Z,1.23
2023-04-22T13:51:27.986Z,1.73
2023-04-22T13:54:29.770Z,1.70
2023-04-22T13:57:31.803Z,1.35
2023-04-22T14:00:34.134Z,1.52
2023-04-22T14:03:36.167Z,1.52
2023-04-22T14:06:39.722Z,1.42
2023-04-22T14:09:41.702Z,1.45
2023-04-22T14:12:44.911Z,1.60
2023-04-22T14:15:46.835Z,1.50
2023-04-22T14:18:48.602Z,1.30
2023-04-22T14:21:51.796Z,1.30
2023-04-22T14:24:53.619Z,1.20
2023-04-22T14:27:55.433Z,1.75
2023-04-22T14:30:57.310Z,1.55
2023-04-22T14:33:59.143Z,1.33
2023-04-22T14:37:02.253Z,1.23
2023-04-22T14:40:04.630Z,1.35
2023-04-22T14:43:07.194Z,1.30
2023-04-22T14:46:08.978Z,0.95
2023-04-22T14:49:10.728Z,1.40
2023-04-22T14:52:13.864Z,1.20
2023-04-22T14:55:23.328Z,1.10
2023-04-22T14:58:25.686Z,1.20
2023-04-22T15:01:27.539Z,1.20
2023-04-22T15:04:29.470Z,1.40
2023-04-22T15:07:32.615Z,1.35
2023-04-22T15:10:34.468Z,1.00
2023-04-22T15:13:36.188Z,1.30
2023-04-22T15:16:38.150Z,1.40
2023-04-22T15:19:40.278Z,1.40
2023-04-22T15:22:44.474Z,1.30
2023-04-22T15:25:46.349Z,1.10
2023-04-22T15:28:48.159Z,0.98
2023-04-22T15:31:50.823Z,1.40
2023-04-22T15:34:54.367Z,1.13
2023-04-22T15:37:58.160Z,1.33
2023-04-22T15:40:59.840Z,1.05
2023-04-22T15:44:01.926Z,1.90
2023-04-22T15:47:04.076Z,1.70
2023-04-22T15:50:07.941Z,1.80
2023-04-22T15:53:11.104Z,1.08
2023-04-22T15:56:13.195Z,1.70
2023-04-22T15:59:15.040Z,1.60
2023-04-22T16:02:16.950Z,1.20
2023-04-22T16:05:19.037Z,1.27
2023-04-22T16:08:22.216Z,1.15
2023-04-22T16:11:24.037Z,1.50
2023-04-22T16:14:25.741Z,1.25
2023-04-22T16:17:27.590Z,1.20
2023-04-22T16:20:29.911Z,1.33
2023-04-22T16:23:33.121Z,1.35
2023-04-22T16:26:34.992Z,1.38
2023-04-22T16:29:36.726Z,1.30
2023-04-22T16:32:38.520Z,1.40
2023-04-22T16:35:40.262Z,1.50
2023-04-22T16:38:43.416Z,1.50
2023-04-22T16:41:45.178Z,1.45
2023-04-22T16:44:46.960Z,2.03
2023-04-22T16:47:48.842Z,2.10
2023-04-22T16:50:50.708Z,1.95
2023-04-22T16:53:53.802Z,1.75
2023-04-22T16:56:55.681Z,1.80
2023-04-22T16:59:57.440Z,1.83
2023-04-22T17:02:59.511Z,1.80
2023-04-22T17:06:01.442Z,1.83
2023-04-22T17:09:04.581Z,1.40
2023-04-22T17:12:06.608Z,1.63
2023-04-22T17:15:09.020Z,1.50
2023-04-22T17:18:10.840Z,1.35
2023-04-22T17:21:12.651Z,1.40
2023-04-22T17:24:15.804Z,1.70
2023-04-22T17:27:17.613Z,1.60
2023-04-22T17:30:19.436Z,1.42
2023-04-22T17:33:21.289Z,1.90
2023-04-22T17:36:23.045Z,1.70
2023-04-22T17:39:26.178Z,1.40
2023-04-22T17:42:38.712Z,1.52
2023-04-22T17:45:44.508Z,1.50
2023-04-22T17:48:46.247Z,1.60
2023-04-22T17:51:48.012Z,1.63
2023-04-22T17:54:51.282Z,1.30
2023-04-22T17:57:53.068Z,1.65
2023-04-22T18:00:54.985Z,1.42
2023-04-22T18:03:56.958Z,1.60
2023-04-22T18:06:58.865Z,1.20
2023-04-22T18:10:02.037Z,1.40
2023-04-22T18:13:04.111Z,1.48
2023-04-22T18:16:06.368Z,1.30
2023-04-22T18:19:08.086Z,1.70
2023-04-22T18:22:09.851Z,1.73
2023-04-22T18:25:13.012Z,1.70
2023-04-22T18:28:15.052Z,1.60
2023-04-22T18:31:16.868Z,3.35
2023-04-22T18:34:18.781Z,3.78
2023-04-22T18:37:20.601Z,3.70
2023-04-22T18:40:24.000Z,4.55
2023-04-22T18:43:25.799Z,4.57
2023-04-22T18:46:27.611Z,4.88
2023-04-22T18:49:29.424Z,4.38
2023-04-22T18:52:31.228Z,3.75
2023-04-22T18:55:34.345Z,3.20
2023-04-22T18:58:36.385Z,2.92
2023-04-22T19:01:38.243Z,2.60
2023-04-22T19:04:41.114Z,2.72
2023-04-22T19:07:45.090Z,3.13
2023-04-22T19:10:52.040Z,2.83
2023-04-22T19:13:53.957Z,2.25
2023-04-22T19:16:55.987Z,2.40
2023-04-22T19:19:58.268Z,2.78
2023-04-22T19:23:00.424Z,2.60
2023-04-22T19:26:03.889Z,2.47
2023-04-22T19:29:05.735Z,2.83
2023-04-22T19:32:07.950Z,2.95
2023-04-22T19:35:10.050Z,2.58
2023-04-22T19:38:12.460Z,2.70
2023-04-22T19:41:15.977Z,3.30
2023-04-22T19:44:18.625Z,3.00
2023-04-22T19:47:20.711Z,2.60
2023-04-22T19:50:23.703Z,3.08
2023-04-22T19:53:25.801Z,2.35
2023-04-22T19:56:29.661Z,2.17
2023-04-22T19:59:31.873Z,2.40
2023-04-22T20:02:35.052Z,2.63
2023-04-22T20:05:38.234Z,2.90
2023-04-22T20:08:40.981Z,2.50
2023-04-22T20:11:44.659Z,2.33
2023-04-22T20:14:47.160Z,2.03
2023-04-22T20:17:49.589Z,2.25
2023-04-22T20:20:53.157Z,2.75
2023-04-22T20:23:57.279Z,2.40
2023-04-22T20:27:00.770Z,2.42
2023-04-22T20:30:03.236Z,2.50
2023-04-22T20:33:05.373Z,2.20
2023-04-22T20:36:07.718Z,1.77
2023-04-22T20:39:12.770Z,2.17
2023-04-22T20:42:15.912Z,2.30
2023-04-22T20:45:17.794Z,2.22
2023-04-22T20:48:19.541Z,1.98
2023-04-22T20:51:21.485Z,2.60
2023-04-22T20:54:28.907Z,2.80
2023-04-22T20:57:32.715Z,2.45
2023-04-22T21:00:34.464Z,2.58
2023-04-22T21:03:39.105Z,2.38
2023-04-22T21:06:43.982Z,2.40
2023-04-22T21:09:46.222Z,1.92
2023-04-22T21:12:50.162Z,2.22
2023-04-22T21:15:57.756Z,2.33
2023-04-22T21:19:00.116Z,2.20
2023-04-22T21:22:05.118Z,2.15
2023-04-22T21:25:08.105Z,2.22
2023-04-22T21:28:11.805Z,2.30
2023-04-22T21:31:14.236Z,2.28
2023-04-22T21:34:16.244Z,2.47
2023-04-22T21:37:18.019Z,2.90
2023-04-22T21:40:19.909Z,3.60
2023-04-22T21:43:23.181Z,2.45
2023-04-22T21:46:25.151Z,2.30
2023-04-22T21:49:27.065Z,2.30
2023-04-22T21:52:29.077Z,2.88
2023-04-22T21:55:31.328Z,2.10
2023-04-22T21:58:34.538Z,2.60
2023-04-22T22:01:36.932Z,3.03
2023-04-22T22:04:39.264Z,3.95
2023-04-22T22:07:43.131Z,3.40
2023-04-22T22:10:45.156Z,2.30
2023-04-22T22:13:48.310Z,2.40
2023-04-22T22:16:50.196Z,2.50
2023-04-22T22:19:52.076Z,2.72
2023-04-22T22:22:53.830Z,2.85
2023-04-22T22:25:55.793Z,2.45
2023-04-22T22:28:59.164Z,2.60
2023-04-22T22:32:01.232Z,2.40
2023-04-22T22:35:03.421Z,3.28
2023-04-22T22:38:05.450Z,2.83
2023-04-22T22:41:07.202Z,2.78
2023-04-22T22:44:10.373Z,2.50
2023-04-22T22:47:12.088Z,2.80
2023-04-22T22:50:13.832Z,2.45
2023-04-22T22:53:15.505Z,2.58
2023-04-22T22:56:17.241Z,2.40
2023-04-22T22:59:20.387Z,2.95
2023-04-22T23:02:23.241Z,2.55
2023-04-22T23:05:25.217Z,2.70
2023-04-22T23:08:26.937Z,2.47
2023-04-22T23:11:28.741Z,2.88
2023-04-22T23:14:32.021Z,2.67
2023-04-22T23:17:33.799Z,2.70
2023-04-22T23:20:37.108Z,2.67
2023-04-22T23:23:40.968Z,2.67
2023-04-22T23:26:43.480Z,2.95
2023-04-22T23:29:47.218Z,2.58
2023-04-22T23:32:51.830Z,3.03
2023-04-22T23:35:54.241Z,3.15
2023-04-22T23:38:57.846Z,3.05
2023-04-22T23:41:59.855Z,2.58
2023-04-22T23:45:03.093Z,2.70
2023-04-22T23:48:05.031Z,2.65
2023-04-22T23:51:06.834Z,3.08
2023-04-22T23:54:08.630Z,2.50
2023-04-22T23:57:10.913Z,3.50
